Latest Weather Observations for Hartz Mountains

IDT60801

Issued at 12:31 pm EDT Sunday 18 November 2018 (issued every 10 minutes, with the page automatically refreshed every 10 minutes)

About weather observations | Map of weather stations | Latest weather observations for TAS | Other Formats
Station Details ID: 094191 Name: HARTZ MOUNTAIN (KEOGHS PIMPLE) Lat: -43.20 Lon: 146.77 Height: 831.0 m
Data from the previous 72 hours. | See also: Recent months at Hartz Mountains
Date/Time
EDT
Temp
°C
App
Temp
°C
Dew
Point
°C
Rel
Hum
%
Delta-T
°C
Wind Press
QNH
hPa
Press
MSL
hPa
Rain since
9am
mm
Dir  Spd
km/h
Gust
km/h
Spd
kts
Gust
kts
18/12:30pm 14.5 12.5 7.3 62 3.7 N 7 13 4 7 - - 0.0
18/12:00pm 14.4 12.0 7.0 61 3.8 NE 9 15 5 8 - - 0.0
18/11:30am 12.6 9.7 6.4 66 3.1 NNE 11 17 6 9 - - 0.0
18/11:00am 12.6 10.1 6.6 67 3.0 NNE 9 17 5 9 - - 0.0
18/10:30am 9.3 6.2 5.5 77 1.8 NNE 11 17 6 9 - - 0.0
18/10:00am 8.3 5.6 5.8 84 1.2 NE 9 15 5 8 - - 0.0
18/09:30am 7.1 4.5 4.4 83 1.2 ENE 7 11 4 6 - - 0.0
18/09:00am 6.1 3.5 4.3 88 0.8 NE 7 13 4 7 - - 0.0
18/08:30am 5.5 2.9 4.0 90 0.7 NNE 7 11 4 6 - - 0.0
18/08:00am 4.9 2.3 4.0 94 0.4 ENE 7 11 4 6 - - 0.0
18/07:30am 4.2 2.4 3.3 94 0.4 NE 2 9 1 5 - - 0.0
18/07:00am 4.2 2.4 3.5 95 0.3 N 2 7 1 4 - - 0.0
18/06:30am 3.8 2.3 3.2 96 0.3 CALM 0 0 0 0 - - 0.0
18/06:00am 3.6 0.4 3.0 96 0.3 NNW 9 13 5 7 - - 0.0
18/05:30am 3.4 0.7 2.8 96 0.3 W 6 9 3 5 - - 0.0
18/05:00am 3.3 0.6 2.7 96 0.3 NNW 6 7 3 4 - - 0.0
18/04:30am 3.0 1.4 2.3 95 0.3 CALM 0 0 0 0 - - 0.0
18/04:00am 2.9 0.9 2.2 95 0.3 WNW 2 6 1 3 - - 0.0
18/03:30am 2.7 -0.3 2.0 95 0.3 NW 7 9 4 5 - - 0.0
18/03:00am 2.6 -1.6 1.6 93 0.4 W 13 15 7 8 - - 0.0
18/02:30am 3.2 0.2 1.7 90 0.6 NW 7 11 4 6 - - 0.0
18/02:00am 2.9 -1.3 1.7 92 0.5 W 13 17 7 9 - - 0.0
18/01:30am 3.1 -0.6 2.1 93 0.4 SSW 11 19 6 10 - - 0.0
18/01:00am 2.9 -1.6 1.9 93 0.4 SW 15 20 8 11 - - 0.0
18/12:30am 2.8 -0.6 1.6 92 0.5 SE 9 15 5 8 - - 0.0
18/12:00am 3.5 -3.4 2.5 93 0.4 WSW 28 35 15 19 - - 0.0
 
Date/Time
EDT
Temp
°C
App
Temp
°C
Dew
Point
°C
Rel
Hum
%
Delta-T
°C
Wind Press
QNH
hPa
Press
MSL
hPa
Rain since
9am
mm
Dir  Spd
km/h
Gust
km/h
Spd
kts
Gust
kts
17/11:30pm 4.0 -2.5 2.8 92 0.5 WSW 26 32 14 17 - - 0.0
17/11:00pm 4.4 -0.7 3.1 91 0.6 WSW 19 24 10 13 - - 0.0
17/10:30pm 4.6 -0.5 2.9 89 0.7 WSW 19 24 10 13 - - 0.0
17/10:00pm 4.7 0.4 3.0 89 0.7 WSW 15 22 8 12 - - 0.0
17/09:30pm 4.9 0.2 2.9 87 0.9 WSW 17 26 9 14 - - 0.0
17/09:00pm 5.0 -0.7 2.7 85 1.0 WSW 22 30 12 16 - - 0.0
17/08:30pm 5.3 0.0 3.0 85 1.0 WSW 20 35 11 19 - - 0.0
17/08:00pm 5.7 0.0 3.0 83 1.2 WSW 22 33 12 18 - - 0.0
17/07:30pm 7.0 1.4 3.4 78 1.6 WSW 22 39 12 21 - - 0.0
17/07:00pm 7.1 1.5 3.5 78 1.6 WSW 22 33 12 18 - - 0.0
17/06:30pm 7.4 1.5 3.8 78 1.6 W 24 35 13 19 - - 0.0
17/06:00pm 7.9 1.6 3.9 76 1.8 W 26 44 14 24 - - 0.0
17/05:53pm 8.2 1.4 3.3 71 2.2 W 28 46 15 25 - - 0.0
17/05:30pm 8.2 1.2 4.0 75 1.9 WSW 30 46 16 25 - - 0.0
17/05:00pm 8.8 2.4 5.0 77 1.8 WSW 28 43 15 23 - - 0.0
17/04:40pm 9.1 2.9 4.5 73 2.1 W 26 52 14 28 - - 0.0
17/04:30pm 9.3 2.3 4.3 71 2.3 WSW 30 44 16 24 - - 0.0
17/04:20pm 10.1 2.8 4.7 69 2.5 WSW 32 50 17 27 - - 0.0
17/04:00pm 11.3 3.6 5.4 67 2.9 W 35 48 19 26 - - 0.0
17/03:30pm 9.8 0.7 4.0 67 2.7 WSW 41 52 22 28 - - 0.0
17/03:00pm 10.7 3.7 5.9 72 2.3 WSW 32 46 17 25 - - 0.0
17/02:50pm 10.4 3.2 4.8 68 2.7 WSW 32 50 17 27 - - 0.0
17/02:30pm 10.0 3.3 5.8 75 2.0 WSW 30 46 16 25 - - 0.0
17/02:01pm 9.5 3.0 4.9 73 2.2 WSW 28 46 15 25 - - 0.0
17/02:00pm 9.7 3.7 5.5 75 2.0 WSW 26 37 14 20 - - 0.0
17/01:30pm 10.8 5.2 5.3 69 2.6 W 24 43 13 23 - - 0.0
17/01:08pm 10.7 4.5 6.3 74 2.2 W 28 52 15 28 - - 0.0
17/01:00pm 10.2 4.8 6.5 78 1.8 W 24 43 13 23 - - 0.0
17/12:30pm 10.0 3.3 7.4 84 1.3 W 32 54 17 29 - - 0.0
17/12:25pm 9.4 3.1 7.3 87 1.0 W 30 54 16 29 - - 0.0
17/12:00pm 8.0 1.4 6.1 88 0.9 W 30 43 16 23 - - 0.0
17/11:37am 7.7 1.5 6.0 89 0.8 W 28 46 15 25 - - 0.0
17/11:30am 7.6 0.5 5.6 87 0.9 W 32 46 17 25 - - 0.0
17/11:00am 8.6 1.6 5.9 83 1.3 W 32 50 17 27 - - 0.0
17/10:57am 8.7 1.7 6.2 84 1.2 W 32 50 17 27 - - 0.0
17/10:30am 8.5 1.5 5.8 83 1.3 W 32 46 17 25 - - 0.0
17/10:10am 6.9 0.3 4.4 84 1.1 W 28 50 15 27 - - 0.0
17/10:00am 7.5 1.0 4.6 82 1.3 W 28 41 15 22 - - 0.0
17/09:30am 6.7 0.1 4.4 85 1.0 W 28 41 15 22 - - 0.0
17/09:00am 6.0 0.6 4.3 89 0.8 W 22 35 12 19 - - 0.0
17/08:30am 5.6 0.1 3.8 88 0.8 WSW 22 33 12 18 - - 0.0
17/08:00am 5.0 -1.5 2.9 86 0.9 WSW 26 37 14 20 - - 0.0
17/07:30am 4.6 -4.1 2.3 85 1.0 WSW 37 44 20 24 - - 0.0
17/07:00am 4.0 -5.1 2.0 87 0.8 WSW 39 50 21 27 - - 0.0
17/06:30am 3.5 -7.0 1.7 88 0.7 WSW 46 56 25 30 - - 0.0
17/06:00am 3.3 -9.0 1.8 90 0.6 W 56 65 30 35 - - 0.0
17/05:30am 2.9 -8.3 1.7 92 0.5 W 50 61 27 33 - - 0.0
17/05:00am 2.7 -7.4 1.7 93 0.4 WSW 44 59 24 32 - - 0.0
17/04:30am 2.7 -6.9 1.1 89 0.6 W 41 52 22 28 - - 0.0
17/04:00am 2.6 -5.2 1.7 94 0.4 W 32 46 17 25 - - 0.0
17/03:30am 2.8 -5.5 1.9 94 0.4 W 35 44 19 24 - - 0.0
17/03:00am 3.0 -6.5 1.8 92 0.5 W 41 50 22 27 - - 0.0
17/02:30am 3.1 -6.3 2.1 93 0.4 WSW 41 50 22 27 - - 0.0
17/02:00am 3.3 -7.1 2.0 91 0.5 W 46 56 25 30 - - 0.0
17/01:30am 3.3 -7.5 2.0 91 0.5 W 48 59 26 32 - - 0.0
17/01:00am 3.3 -6.8 1.8 90 0.6 W 44 52 24 28 - - 0.0
17/12:30am 3.3 -5.8 1.8 90 0.6 W 39 48 21 26 - - 0.0
17/12:00am 3.4 -3.6 1.8 89 0.7 WSW 28 41 15 22 - - 0.0
 
Date/Time
EDT
Temp
°C
App
Temp
°C
Dew
Point
°C
Rel
Hum
%
Delta-T
°C
Wind Press
QNH
hPa
Press
MSL
hPa
Rain since
9am
mm
Dir  Spd
km/h
Gust
km/h
Spd
kts
Gust
kts
16/11:30pm 3.6 -4.4 1.6 87 0.8 WSW 33 39 18 21 - - 0.0
16/11:00pm 3.6 -4.3 1.0 83 1.1 WSW 32 37 17 20 - - 0.0
16/10:30pm 3.6 -3.3 0.3 79 1.3 WSW 26 30 14 16 - - 0.0
16/10:00pm 3.9 -3.0 0.2 77 1.5 W 26 32 14 17 - - 0.0
16/09:30pm 4.3 -3.0 -0.1 73 1.8 W 28 33 15 18 - - 0.0
16/09:00pm 4.7 -3.1 -0.5 69 2.1 W 30 35 16 19 - - 0.0
16/08:30pm 5.1 -2.2 -0.3 68 2.2 WSW 28 35 15 19 - - 0.0
16/08:00pm 6.0 0.2 -0.1 65 2.5 WSW 20 28 11 15 - - 0.0
16/07:30pm 8.4 3.0 1.1 60 3.1 WSW 19 26 10 14 - - 0.0
16/07:00pm 9.0 2.6 1.2 58 3.4 WSW 24 32 13 17 - - 0.0
16/06:30pm 11.0 5.5 2.1 54 4.0 WSW 20 30 11 16 - - 0.0
16/06:00pm 11.6 6.2 1.5 50 4.5 W 19 28 10 15 - - 0.0
16/05:30pm 11.8 6.9 2.0 51 4.4 WSW 17 28 9 15 - - 0.0
16/05:00pm 10.9 5.7 3.5 60 3.4 W 20 32 11 17 - - 0.0
16/04:30pm 8.8 3.4 2.4 64 2.8 W 20 32 11 17 - - 0.0
16/04:00pm 8.9 3.5 2.5 64 2.8 WNW 20 30 11 16 - - 0.0
16/03:30pm 8.6 3.3 1.7 62 3.0 W 19 26 10 14 - - 0.0
16/03:00pm 8.3 3.4 2.3 66 2.6 W 17 30 9 16 - - 0.0
16/02:30pm 9.3 3.2 2.9 64 2.9 W 24 37 13 20 - - 0.0
16/02:00pm 8.3 3.5 2.8 68 2.4 W 17 30 9 16 - - 0.0
16/01:30pm 8.8 3.5 2.8 66 2.7 WNW 20 30 11 16 - - 0.0
16/01:00pm 10.2 5.1 5.8 74 2.1 WNW 22 32 12 17 - - 0.0
16/12:30pm 8.3 2.7 3.2 70 2.3 WNW 22 32 12 17 - - 0.0
16/12:00pm 8.5 3.4 3.1 69 2.4 W 19 32 10 17 - - 0.0
16/11:30am 8.2 3.3 4.2 76 1.8 W 19 30 10 16 - - 0.0
16/11:00am 7.2 2.9 3.4 77 1.7 W 15 28 8 15 - - 0.0
16/10:30am 8.2 2.8 4.4 77 1.8 WNW 22 37 12 20 - - 0.0
16/10:00am 7.8 2.0 4.6 80 1.5 WNW 24 37 13 20 - - 0.0
16/09:30am 7.6 2.2 4.4 80 1.5 WNW 22 30 12 16 - - 0.0
16/09:00am 6.3 -0.5 3.3 81 1.3 WNW 28 44 15 24 - - 0.8
16/08:30am 5.5 0.2 3.2 85 1.0 W 20 32 11 17 - - 0.8
16/08:00am 5.2 -0.1 2.9 85 1.0 W 20 32 11 17 - - 0.8
16/07:30am 4.9 0.2 3.1 88 0.8 W 17 24 9 13 - - 0.8
16/07:00am 3.9 -1.5 2.7 92 0.5 WNW 20 26 11 14 - - 0.8
16/06:30am 3.1 -1.7 2.7 97 0.2 NW 17 19 9 10 - - 0.8
16/06:00am 2.7 -1.4 2.3 97 0.2 NW 13 17 7 9 - - 0.8
16/05:30am 2.7 -2.2 2.3 97 0.2 NNW 17 19 9 10 - - 0.8
16/05:00am 2.5 -2.4 2.1 97 0.2 N 17 20 9 11 - - 0.8
16/04:30am 2.3 -2.3 1.7 96 0.2 N 15 20 8 11 - - 0.8
16/04:00am 2.2 -2.4 1.6 96 0.2 N 15 22 8 12 - - 0.8
16/03:30am 2.2 -2.8 1.5 95 0.3 N 17 24 9 13 - - 0.8
16/03:00am 2.5 -1.3 1.6 94 0.4 NNE 11 17 6 9 - - 0.8
16/02:30am 2.4 -1.8 1.4 93 0.4 NNE 13 17 7 9 - - 0.8
16/02:00am 2.4 -1.5 1.4 93 0.4 NNE 11 15 6 8 - - 0.8
16/01:30am 2.6 -1.2 1.7 94 0.4 NE 11 15 6 8 - - 0.8
16/01:00am 2.5 -1.0 1.5 93 0.4 NE 9 13 5 7 - - 0.8
16/12:30am 2.6 -1.2 1.7 94 0.4 NE 11 15 6 8 - - 0.8
16/12:00am 2.7 -1.1 1.7 93 0.4 NE 11 15 6 8 - - 0.8
 
Date/Time
EDT
Temp
°C
App
Temp
°C
Dew
Point
°C
Rel
Hum
%
Delta-T
°C
Wind Press
QNH
hPa
Press
MSL
hPa
Rain since
9am
mm
Dir  Spd
km/h
Gust
km/h
Spd
kts
Gust
kts
15/11:30pm 2.6 -0.9 1.4 92 0.5 ENE 9 13 5 7 - - 0.8
15/11:00pm 2.3 -1.2 1.0 91 0.5 E 9 13 5 7 - - 0.8
15/10:30pm 2.3 -1.6 1.0 91 0.5 ESE 11 17 6 9 - - 0.8
15/10:00pm 2.1 -2.3 0.3 88 0.7 ESE 13 17 7 9 - - 0.8
15/09:30pm 2.5 -1.5 0.7 88 0.7 SE 11 13 6 7 - - 0.8
15/09:00pm 2.6 -1.7 1.0 89 0.6 ESE 13 17 7 9 - - 0.8
15/08:30pm 3.0 -0.9 1.1 87 0.8 ESE 11 17 6 9 - - 0.8
15/08:00pm 3.2 -1.1 1.3 87 0.8 ESE 13 17 7 9 - - 0.8
15/07:30pm 3.6 -0.2 1.6 87 0.8 SE 11 19 6 10 - - 0.8
15/07:00pm 3.9 -1.0 1.8 86 0.9 ESE 17 24 9 13 - - 0.8
15/06:30pm 4.4 -0.5 2.1 85 1.0 SE 17 26 9 14 - - 0.8
15/06:00pm 4.4 -0.5 1.8 83 1.1 SE 17 24 9 13 - - 0.8
15/05:30pm 5.7 0.9 2.7 81 1.3 ESE 17 26 9 14 - - 0.8
15/05:00pm 6.2 1.7 2.1 75 1.8 ESE 15 24 8 13 - - 0.8
15/04:30pm 6.8 2.4 2.7 75 1.8 ESE 15 20 8 11 - - 0.8
15/04:00pm 7.2 3.1 2.5 72 2.1 ESE 13 19 7 10 - - 0.8
15/03:30pm 7.5 3.9 3.0 73 2.0 E 11 19 6 10 - - 0.8
15/03:00pm 9.2 6.3 1.6 59 3.3 WNW 6 15 3 8 - - 0.8
15/02:30pm 10.7 7.9 2.3 56 3.8 SW 6 17 3 9 - - 0.8
15/02:00pm 9.2 5.5 2.3 62 3.1 WSW 11 20 6 11 - - 0.8
15/01:30pm 8.5 4.5 0.2 56 3.5 SW 11 19 6 10 - - 0.8
15/01:00pm 7.1 1.4 0.8 64 2.6 SW 20 32 11 17 - - 0.8

Other Formats:

Comma delimited format used in spreadsheet applications
http://www.bom.gov.au/fwo/IDT60801/IDT60801.94977.axf

JavaScript Object Notation format (JSON) in row-major order
http://www.bom.gov.au/fwo/IDT60801/IDT60801.94977.json